sensor_id;sensor_type;location;lat;lon;timestamp;pressure;altitude;pressure_sealevel;temperature;humidity
51781;BME280;37844;57.126;24.288;2023-05-13T00:01:39;102712.81;;;10.02;100.00
51781;BME280;37844;57.126;24.288;2023-05-13T00:04:24;102709.19;;;9.98;100.00
51781;BME280;37844;57.126;24.288;2023-05-13T00:07:08;102710.72;;;10.13;100.00
51781;BME280;37844;57.126;24.288;2023-05-13T00:09:52;102710.09;;;9.99;100.00
51781;BME280;37844;57.126;24.288;2023-05-13T00:12:35;102710.47;;;9.89;100.00
51781;BME280;37844;57.126;24.288;2023-05-13T00:15:19;102713.78;;;9.86;100.00
51781;BME280;37844;57.126;24.288;2023-05-13T00:18:03;102712.16;;;9.88;100.00
51781;BME280;37844;57.126;24.288;2023-05-13T00:20:47;102714.25;;;9.77;100.00
51781;BME280;37844;57.126;24.288;2023-05-13T00:23:31;102708.34;;;9.80;100.00
51781;BME280;37844;57.126;24.288;2023-05-13T00:26:15;102708.25;;;9.61;100.00
51781;BME280;37844;57.126;24.288;2023-05-13T00:29:00;102707.72;;;9.68;100.00
51781;BME280;37844;57.126;24.288;2023-05-13T00:31:44;102714.00;;;9.55;100.00
51781;BME280;37844;57.126;24.288;2023-05-13T00:34:28;102720.09;;;9.57;100.00
51781;BME280;37844;57.126;24.288;2023-05-13T00:37:12;102716.19;;;9.47;100.00
51781;BME280;37844;57.126;24.288;2023-05-13T00:39:57;102715.78;;;9.22;100.00
51781;BME280;37844;57.126;24.288;2023-05-13T00:42:41;102724.47;;;9.24;100.00
51781;BME280;37844;57.126;24.288;2023-05-13T00:45:25;102725.41;;;9.42;100.00
51781;BME280;37844;57.126;24.288;2023-05-13T00:48:09;102720.28;;;9.26;100.00
51781;BME280;37844;57.126;24.288;2023-05-13T00:50:53;102722.19;;;9.30;100.00
51781;BME280;37844;57.126;24.288;2023-05-13T00:53:37;102717.09;;;9.13;100.00
51781;BME280;37844;57.126;24.288;2023-05-13T00:56:22;102718.84;;;9.15;100.00
51781;BME280;37844;57.126;24.288;2023-05-13T00:59:06;102725.78;;;8.99;100.00
51781;BME280;37844;57.126;24.288;2023-05-13T01:08:06;102727.56;;;9.00;100.00
51781;BME280;37844;57.126;24.288;2023-05-13T01:13:37;102724.28;;;8.86;100.00
51781;BME280;37844;57.126;24.288;2023-05-13T01:16:29;102730.78;;;8.80;100.00
51781;BME280;37844;57.126;24.288;2023-05-13T01:22:16;102737.13;;;8.70;100.00
51781;BME280;37844;57.126;24.288;2023-05-13T01:25:00;102726.22;;;8.58;100.00
51781;BME280;37844;57.126;24.288;2023-05-13T01:27:44;102736.78;;;8.80;100.00
51781;BME280;37844;57.126;24.288;2023-05-13T01:30:28;102736.50;;;8.58;100.00
51781;BME280;37844;57.126;24.288;2023-05-13T01:33:13;102739.13;;;8.43;100.00
51781;BME280;37844;57.126;24.288;2023-05-13T01:35:58;102741.75;;;8.44;100.00
51781;BME280;37844;57.126;24.288;2023-05-13T01:38:42;102737.59;;;8.46;100.00
51781;BME280;37844;57.126;24.288;2023-05-13T01:41:26;102734.88;;;8.43;100.00
51781;BME280;37844;57.126;24.288;2023-05-13T01:44:10;102740.53;;;8.38;100.00
51781;BME280;37844;57.126;24.288;2023-05-13T01:46:54;102740.72;;;8.41;100.00
51781;BME280;37844;57.126;24.288;2023-05-13T01:49:38;102736.50;;;8.26;100.00
51781;BME280;37844;57.126;24.288;2023-05-13T01:52:22;102746.00;;;8.13;100.00
51781;BME280;37844;57.126;24.288;2023-05-13T01:55:06;102744.78;;;8.06;100.00
51781;BME280;37844;57.126;24.288;2023-05-13T01:57:50;102739.53;;;8.19;100.00
51781;BME280;37844;57.126;24.288;2023-05-13T02:00:34;102741.75;;;8.13;100.00
51781;BME280;37844;57.126;24.288;2023-05-13T02:03:19;102747.13;;;8.18;100.00
51781;BME280;37844;57.126;24.288;2023-05-13T02:06:03;102747.66;;;8.27;100.00
51781;BME280;37844;57.126;24.288;2023-05-13T02:08:47;102746.72;;;8.10;100.00
51781;BME280;37844;57.126;24.288;2023-05-13T02:11:31;102751.97;;;7.97;100.00
51781;BME280;37844;57.126;24.288;2023-05-13T02:14:15;102748.63;;;7.98;100.00
51781;BME280;37844;57.126;24.288;2023-05-13T02:16:59;102749.78;;;7.88;100.00
51781;BME280;37844;57.126;24.288;2023-05-13T02:19:43;102760.50;;;7.96;100.00
51781;BME280;37844;57.126;24.288;2023-05-13T02:22:34;102751.72;;;7.92;100.00
51781;BME280;37844;57.126;24.288;2023-05-13T02:25:18;102765.72;;;7.97;100.00
51781;BME280;37844;57.126;24.288;2023-05-13T02:28:02;102757.59;;;7.75;100.00
51781;BME280;37844;57.126;24.288;2023-05-13T02:30:46;102758.03;;;7.68;100.00
51781;BME280;37844;57.126;24.288;2023-05-13T02:33:30;102762.38;;;7.83;100.00
51781;BME280;37844;57.126;24.288;2023-05-13T02:36:14;102751.09;;;7.96;100.00
51781;BME280;37844;57.126;24.288;2023-05-13T02:38:58;102754.91;;;8.03;100.00
51781;BME280;37844;57.126;24.288;2023-05-13T02:41:42;102753.72;;;8.13;100.00
51781;BME280;37844;57.126;24.288;2023-05-13T02:44:27;102751.72;;;8.07;100.00
51781;BME280;37844;57.126;24.288;2023-05-13T02:47:10;102758.75;;;8.26;100.00
51781;BME280;37844;57.126;24.288;2023-05-13T02:49:57;102755.16;;;8.39;100.00
51781;BME280;37844;57.126;24.288;2023-05-13T02:52:41;102751.97;;;8.28;100.00
51781;BME280;37844;57.126;24.288;2023-05-13T02:55:25;102750.22;;;8.27;100.00
51781;BME280;37844;57.126;24.288;2023-05-13T02:58:09;102754.22;;;8.22;100.00
51781;BME280;37844;57.126;24.288;2023-05-13T03:00:53;102753.16;;;8.18;100.00
51781;BME280;37844;57.126;24.288;2023-05-13T03:03:37;102755.97;;;8.23;100.00
51781;BME280;37844;57.126;24.288;2023-05-13T03:06:21;102751.56;;;8.20;100.00
51781;BME280;37844;57.126;24.288;2023-05-13T03:09:05;102756.34;;;8.29;100.00
51781;BME280;37844;57.126;24.288;2023-05-13T03:11:49;102756.78;;;8.22;100.00
51781;BME280;37844;57.126;24.288;2023-05-13T03:14:33;102754.00;;;8.34;100.00
51781;BME280;37844;57.126;24.288;2023-05-13T03:17:19;102758.44;;;8.36;100.00
51781;BME280;37844;57.126;24.288;2023-05-13T03:20:03;102755.00;;;8.36;100.00
51781;BME280;37844;57.126;24.288;2023-05-13T03:22:47;102759.53;;;8.56;100.00
51781;BME280;37844;57.126;24.288;2023-05-13T03:25:31;102758.19;;;8.63;100.00
51781;BME280;37844;57.126;24.288;2023-05-13T03:28:15;102763.81;;;8.72;100.00
51781;BME280;37844;57.126;24.288;2023-05-13T03:30:59;102764.78;;;8.90;100.00
51781;BME280;37844;57.126;24.288;2023-05-13T03:33:43;102762.75;;;9.01;100.00
51781;BME280;37844;57.126;24.288;2023-05-13T03:36:27;102762.22;;;9.07;100.00
51781;BME280;37844;57.126;24.288;2023-05-13T03:39:11;102769.56;;;9.33;100.00
51781;BME280;37844;57.126;24.288;2023-05-13T03:41:55;102769.88;;;9.40;100.00
51781;BME280;37844;57.126;24.288;2023-05-13T03:44:39;102776.38;;;9.49;100.00
51781;BME280;37844;57.126;24.288;2023-05-13T03:47:23;102771.03;;;9.81;100.00
51781;BME280;37844;57.126;24.288;2023-05-13T03:50:07;102774.81;;;9.87;100.00
51781;BME280;37844;57.126;24.288;2023-05-13T03:52:52;102779.94;;;10.05;100.00
51781;BME280;37844;57.126;24.288;2023-05-13T03:55:36;102777.66;;;9.93;100.00
51781;BME280;37844;57.126;24.288;2023-05-13T03:58:20;102773.25;;;10.09;100.00
51781;BME280;37844;57.126;24.288;2023-05-13T04:01:07;102779.41;;;10.48;100.00
51781;BME280;37844;57.126;24.288;2023-05-13T04:03:51;102776.97;;;10.15;100.00
51781;BME280;37844;57.126;24.288;2023-05-13T04:06:34;102783.47;;;10.43;100.00
51781;BME280;37844;57.126;24.288;2023-05-13T04:09:18;102785.50;;;10.50;100.00
51781;BME280;37844;57.126;24.288;2023-05-13T04:12:02;102783.69;;;10.67;100.00
51781;BME280;37844;57.126;24.288;2023-05-13T04:14:46;102786.16;;;10.64;100.00
51781;BME280;37844;57.126;24.288;2023-05-13T04:17:30;102780.38;;;10.70;100.00
51781;BME280;37844;57.126;24.288;2023-05-13T04:20:14;102785.41;;;10.86;100.00
51781;BME280;37844;57.126;24.288;2023-05-13T04:22:59;102786.50;;;11.11;100.00
51781;BME280;37844;57.126;24.288;2023-05-13T04:25:48;102778.53;;;11.25;100.00
51781;BME280;37844;57.126;24.288;2023-05-13T04:28:32;102778.19;;;11.37;100.00
51781;BME280;37844;57.126;24.288;2023-05-13T04:31:17;102785.94;;;11.58;100.00
51781;BME280;37844;57.126;24.288;2023-05-13T04:34:01;102788.28;;;11.73;100.00
51781;BME280;37844;57.126;24.288;2023-05-13T04:36:45;102787.34;;;11.92;100.00
51781;BME280;37844;57.126;24.288;2023-05-13T04:39:31;102779.63;;;12.15;100.00
51781;BME280;37844;57.126;24.288;2023-05-13T04:42:15;102781.47;;;12.40;100.00
51781;BME280;37844;57.126;24.288;2023-05-13T04:45:05;102786.97;;;12.49;100.00
51781;BME280;37844;57.126;24.288;2023-05-13T04:47:49;102792.78;;;12.66;100.00
51781;BME280;37844;57.126;24.288;2023-05-13T04:50:33;102780.81;;;12.92;100.00
51781;BME280;37844;57.126;24.288;2023-05-13T04:53:17;102778.44;;;12.98;100.00
51781;BME280;37844;57.126;24.288;2023-05-13T04:56:01;102787.13;;;13.24;100.00
51781;BME280;37844;57.126;24.288;2023-05-13T04:58:45;102789.28;;;13.62;100.00
51781;BME280;37844;57.126;24.288;2023-05-13T05:01:29;102797.47;;;14.01;100.00
51781;BME280;37844;57.126;24.288;2023-05-13T05:04:13;102793.13;;;14.00;99.42
51781;BME280;37844;57.126;24.288;2023-05-13T05:06:57;102795.50;;;14.21;96.28
51781;BME280;37844;57.126;24.288;2023-05-13T05:09:41;102799.72;;;14.75;92.96
51781;BME280;37844;57.126;24.288;2023-05-13T05:12:25;102796.78;;;14.93;90.10
51781;BME280;37844;57.126;24.288;2023-05-13T05:15:09;102786.00;;;15.11;86.54
51781;BME280;37844;57.126;24.288;2023-05-13T05:17:58;102794.44;;;15.02;82.08
51781;BME280;37844;57.126;24.288;2023-05-13T05:20:41;102793.09;;;15.50;80.32
51781;BME280;37844;57.126;24.288;2023-05-13T05:23:25;102788.13;;;15.94;76.65
51781;BME280;37844;57.126;24.288;2023-05-13T05:26:10;102791.53;;;16.29;75.15
51781;BME280;37844;57.126;24.288;2023-05-13T05:28:53;102795.66;;;16.59;72.61
51781;BME280;37844;57.126;24.288;2023-05-13T05:31:37;102796.50;;;17.00;67.79
51781;BME280;37844;57.126;24.288;2023-05-13T05:34:21;102792.25;;;17.04;65.67
51781;BME280;37844;57.126;24.288;2023-05-13T05:37:05;102796.28;;;17.36;66.58
51781;BME280;37844;57.126;24.288;2023-05-13T05:39:50;102791.78;;;17.79;62.74
51781;BME280;37844;57.126;24.288;2023-05-13T05:42:34;102790.25;;;17.88;61.81
51781;BME280;37844;57.126;24.288;2023-05-13T05:45:18;102794.63;;;18.51;59.96
51781;BME280;37844;57.126;24.288;2023-05-13T05:48:02;102790.66;;;18.79;58.77
51781;BME280;37844;57.126;24.288;2023-05-13T05:50:47;102795.16;;;18.96;58.09
51781;BME280;37844;57.126;24.288;2023-05-13T05:53:32;102789.47;;;19.38;55.59
51781;BME280;37844;57.126;24.288;2023-05-13T05:56:16;102793.34;;;19.77;54.89
51781;BME280;37844;57.126;24.288;2023-05-13T05:59:00;102788.50;;;20.39;53.12
51781;BME280;37844;57.126;24.288;2023-05-13T06:01:44;102780.00;;;21.15;51.38
51781;BME280;37844;57.126;24.288;2023-05-13T06:04:28;102781.81;;;21.71;49.66
51781;BME280;37844;57.126;24.288;2023-05-13T06:07:12;102784.34;;;22.20;49.03
51781;BME280;37844;57.126;24.288;2023-05-13T06:09:56;102784.19;;;22.65;47.97
51781;BME280;37844;57.126;24.288;2023-05-13T06:12:41;102781.28;;;23.17;47.89
51781;BME280;37844;57.126;24.288;2023-05-13T06:15:25;102785.63;;;23.20;47.27
51781;BME280;37844;57.126;24.288;2023-05-13T06:18:09;102788.09;;;23.41;47.01
51781;BME280;37844;57.126;24.288;2023-05-13T06:20:53;102785.25;;;24.51;46.32
51781;BME280;37844;57.126;24.288;2023-05-13T06:23:37;102778.03;;;24.65;45.88
51781;BME280;37844;57.126;24.288;2023-05-13T06:26:21;102783.78;;;24.96;44.96
51781;BME280;37844;57.126;24.288;2023-05-13T06:29:05;102772.97;;;25.66;43.52
51781;BME280;37844;57.126;24.288;2023-05-13T06:31:49;102778.09;;;25.75;42.46
51781;BME280;37844;57.126;24.288;2023-05-13T06:34:33;102788.22;;;26.01;41.72
51781;BME280;37844;57.126;24.288;2023-05-13T06:37:17;102783.28;;;26.27;41.46
51781;BME280;37844;57.126;24.288;2023-05-13T06:40:01;102781.72;;;26.60;40.55
51781;BME280;37844;57.126;24.288;2023-05-13T06:42:45;102780.41;;;27.54;40.55
51781;BME280;37844;57.126;24.288;2023-05-13T06:45:29;102783.22;;;28.13;38.65
51781;BME280;37844;57.126;24.288;2023-05-13T06:48:14;102781.50;;;28.42;37.71
51781;BME280;37844;57.126;24.288;2023-05-13T06:50:58;102783.06;;;28.51;36.70
51781;BME280;37844;57.126;24.288;2023-05-13T06:53:42;102783.97;;;28.78;36.47
51781;BME280;37844;57.126;24.288;2023-05-13T06:56:27;102779.63;;;28.47;35.07
51781;BME280;37844;57.126;24.288;2023-05-13T06:59:12;102789.34;;;29.33;35.11
51781;BME280;37844;57.126;24.288;2023-05-13T07:01:56;102787.28;;;29.68;33.83
51781;BME280;37844;57.126;24.288;2023-05-13T07:04:40;102786.19;;;29.47;33.84
51781;BME280;37844;57.126;24.288;2023-05-13T07:07:24;102800.41;;;29.97;33.19
51781;BME280;37844;57.126;24.288;2023-05-13T07:10:07;102785.59;;;30.61;32.46
51781;BME280;37844;57.126;24.288;2023-05-13T07:12:51;102786.09;;;30.94;31.46
51781;BME280;37844;57.126;24.288;2023-05-13T07:15:36;102776.22;;;31.61;32.22
51781;BME280;37844;57.126;24.288;2023-05-13T07:18:20;102777.50;;;31.91;32.68
51781;BME280;37844;57.126;24.288;2023-05-13T07:21:04;102777.44;;;31.93;33.21
51781;BME280;37844;57.126;24.288;2023-05-13T07:23:49;102779.75;;;31.61;34.06
51781;BME280;37844;57.126;24.288;2023-05-13T07:26:33;102774.59;;;31.98;32.26
51781;BME280;37844;57.126;24.288;2023-05-13T07:29:17;102773.59;;;32.59;33.14
51781;BME280;37844;57.126;24.288;2023-05-13T07:32:04;102776.22;;;32.78;33.72
51781;BME280;37844;57.126;24.288;2023-05-13T07:34:48;102779.31;;;32.87;33.91
51781;BME280;37844;57.126;24.288;2023-05-13T07:37:32;102776.38;;;32.56;33.75
51781;BME280;37844;57.126;24.288;2023-05-13T07:40:16;102777.56;;;32.48;34.16
51781;BME280;37844;57.126;24.288;2023-05-13T07:43:01;102770.94;;;31.80;34.35
51781;BME280;37844;57.126;24.288;2023-05-13T07:45:45;102782.06;;;32.48;34.47
51781;BME280;37844;57.126;24.288;2023-05-13T07:48:29;102776.50;;;32.71;33.38
51781;BME280;37844;57.126;24.288;2023-05-13T07:51:14;102778.91;;;32.59;32.92
51781;BME280;37844;57.126;24.288;2023-05-13T07:53:59;102781.97;;;31.52;34.16
51781;BME280;37844;57.126;24.288;2023-05-13T07:56:43;102782.94;;;30.39;35.26
51781;BME280;37844;57.126;24.288;2023-05-13T07:59:29;102779.72;;;32.02;33.82
51781;BME280;37844;57.126;24.288;2023-05-13T08:02:13;102775.22;;;32.42;32.88
51781;BME280;37844;57.126;24.288;2023-05-13T08:04:57;102771.63;;;32.99;33.13
51781;BME280;37844;57.126;24.288;2023-05-13T08:07:41;102775.38;;;33.13;32.74
51781;BME280;37844;57.126;24.288;2023-05-13T08:10:25;102772.91;;;33.09;33.09
51781;BME280;37844;57.126;24.288;2023-05-13T08:13:09;102768.34;;;33.81;32.30
51781;BME280;37844;57.126;24.288;2023-05-13T08:15:53;102768.91;;;32.05;33.78
51781;BME280;37844;57.126;24.288;2023-05-13T08:18:37;102759.78;;;33.04;33.48
51781;BME280;37844;57.126;24.288;2023-05-13T08:21:20;102763.97;;;33.27;31.62
51781;BME280;37844;57.126;24.288;2023-05-13T08:24:05;102772.69;;;33.99;31.49
51781;BME280;37844;57.126;24.288;2023-05-13T08:26:49;102762.84;;;33.31;31.28
51781;BME280;37844;57.126;24.288;2023-05-13T08:29:33;102775.88;;;33.55;30.72
51781;BME280;37844;57.126;24.288;2023-05-13T08:32:17;102770.38;;;33.75;31.05
51781;BME280;37844;57.126;24.288;2023-05-13T08:35:01;102766.56;;;33.46;30.71
51781;BME280;37844;57.126;24.288;2023-05-13T08:37:45;102769.69;;;33.54;30.64
51781;BME280;37844;57.126;24.288;2023-05-13T08:40:29;102766.50;;;33.65;30.85
51781;BME280;37844;57.126;24.288;2023-05-13T08:43:14;102770.09;;;34.15;30.37
51781;BME280;37844;57.126;24.288;2023-05-13T08:46:00;102772.44;;;33.70;31.21
51781;BME280;37844;57.126;24.288;2023-05-13T08:48:45;102771.91;;;33.97;30.85
51781;BME280;37844;57.126;24.288;2023-05-13T08:51:30;102764.47;;;34.19;30.71
51781;BME280;37844;57.126;24.288;2023-05-13T08:54:15;102771.25;;;34.09;30.78
51781;BME280;37844;57.126;24.288;2023-05-13T08:56:59;102756.44;;;34.35;29.51
51781;BME280;37844;57.126;24.288;2023-05-13T08:59:44;102765.47;;;34.17;29.71
51781;BME280;37844;57.126;24.288;2023-05-13T09:02:28;102760.63;;;34.08;29.51
51781;BME280;37844;57.126;24.288;2023-05-13T09:05:12;102762.69;;;33.69;30.00
51781;BME280;37844;57.126;24.288;2023-05-13T09:07:55;102766.31;;;34.02;30.37
51781;BME280;37844;57.126;24.288;2023-05-13T09:10:39;102763.28;;;33.58;30.08
51781;BME280;37844;57.126;24.288;2023-05-13T09:13:23;102757.84;;;34.27;29.58
51781;BME280;37844;57.126;24.288;2023-05-13T09:16:08;102761.22;;;33.64;29.92
51781;BME280;37844;57.126;24.288;2023-05-13T09:18:56;102758.91;;;33.38;30.27
51781;BME280;37844;57.126;24.288;2023-05-13T09:21:41;102753.47;;;34.08;30.46
51781;BME280;37844;57.126;24.288;2023-05-13T09:24:26;102748.88;;;33.44;30.99
51781;BME280;37844;57.126;24.288;2023-05-13T09:27:10;102758.06;;;33.21;31.71
51781;BME280;37844;57.126;24.288;2023-05-13T09:29:57;102755.50;;;32.83;32.58
51781;BME280;37844;57.126;24.288;2023-05-13T09:32:42;102761.66;;;31.88;32.66
51781;BME280;37844;57.126;24.288;2023-05-13T09:35:25;102757.44;;;32.03;32.96
51781;BME280;37844;57.126;24.288;2023-05-13T09:38:26;102754.84;;;31.81;32.03
51781;BME280;37844;57.126;24.288;2023-05-13T09:41:10;102753.22;;;30.95;33.39
51781;BME280;37844;57.126;24.288;2023-05-13T09:43:54;102758.03;;;31.08;33.73
51781;BME280;37844;57.126;24.288;2023-05-13T09:46:38;102757.19;;;30.85;32.63
51781;BME280;37844;57.126;24.288;2023-05-13T09:49:27;102759.38;;;30.52;33.25
51781;BME280;37844;57.126;24.288;2023-05-13T09:52:12;102762.50;;;29.92;35.40
51781;BME280;37844;57.126;24.288;2023-05-13T09:54:59;102757.25;;;29.12;36.21
51781;BME280;37844;57.126;24.288;2023-05-13T09:57:44;102750.97;;;28.87;35.74
51781;BME280;37844;57.126;24.288;2023-05-13T10:00:28;102756.41;;;28.24;37.22
51781;BME280;37844;57.126;24.288;2023-05-13T10:03:13;102752.16;;;27.87;37.86
51781;BME280;37844;57.126;24.288;2023-05-13T10:05:57;102751.06;;;27.62;39.10
51781;BME280;37844;57.126;24.288;2023-05-13T10:08:45;102751.00;;;27.65;38.22
51781;BME280;37844;57.126;24.288;2023-05-13T10:11:32;102747.13;;;26.69;40.42
51781;BME280;37844;57.126;24.288;2023-05-13T10:14:18;102748.13;;;26.23;40.29
51781;BME280;37844;57.126;24.288;2023-05-13T10:17:03;102734.25;;;26.93;39.37
51781;BME280;37844;57.126;24.288;2023-05-13T10:19:49;102748.53;;;26.03;39.83
51781;BME280;37844;57.126;24.288;2023-05-13T10:22:33;102741.03;;;25.78;39.44
51781;BME280;37844;57.126;24.288;2023-05-13T10:25:17;102706.59;;;25.36;40.07
51781;BME280;37844;57.126;24.288;2023-05-13T10:28:02;102735.38;;;25.52;40.04
51781;BME280;37844;57.126;24.288;2023-05-13T10:30:48;102738.13;;;24.90;41.12
51781;BME280;37844;57.126;24.288;2023-05-13T10:33:32;102726.06;;;24.75;40.98
51781;BME280;37844;57.126;24.288;2023-05-13T10:45:02;102731.66;;;23.73;40.66
51781;BME280;37844;57.126;24.288;2023-05-13T10:47:48;102732.41;;;23.87;41.09
51781;BME280;37844;57.126;24.288;2023-05-13T10:50:36;102741.34;;;23.71;41.71
51781;BME280;37844;57.126;24.288;2023-05-13T10:53:25;102734.34;;;23.67;42.43
51781;BME280;37844;57.126;24.288;2023-05-13T10:56:10;102729.28;;;23.47;41.44
51781;BME280;37844;57.126;24.288;2023-05-13T11:01:45;102725.25;;;23.01;40.55
51781;BME280;37844;57.126;24.288;2023-05-13T11:04:31;102730.34;;;23.24;39.71
51781;BME280;37844;57.126;24.288;2023-05-13T11:07:15;102728.75;;;23.03;41.35
51781;BME280;37844;57.126;24.288;2023-05-13T11:09:59;102726.66;;;23.45;40.66
51781;BME280;37844;57.126;24.288;2023-05-13T11:13:05;102732.31;;;22.93;41.25
51781;BME280;37844;57.126;24.288;2023-05-13T11:15:48;102727.91;;;22.95;40.84
51781;BME280;37844;57.126;24.288;2023-05-13T11:18:33;102727.81;;;23.12;41.17
51781;BME280;37844;57.126;24.288;2023-05-13T11:21:27;102709.56;;;22.84;40.92
51781;BME280;37844;57.126;24.288;2023-05-13T11:24:15;102735.72;;;23.11;40.58
51781;BME280;37844;57.126;24.288;2023-05-13T11:27:11;102736.41;;;23.37;40.04
51781;BME280;37844;57.126;24.288;2023-05-13T11:29:54;102733.72;;;23.39;40.00
51781;BME280;37844;57.126;24.288;2023-05-13T11:32:57;102728.66;;;23.19;39.37
51781;BME280;37844;57.126;24.288;2023-05-13T11:35:41;102730.53;;;23.03;39.05
51781;BME280;37844;57.126;24.288;2023-05-13T11:38:26;102731.41;;;23.02;40.38
51781;BME280;37844;57.126;24.288;2023-05-13T11:41:11;102715.75;;;22.79;39.34
51781;BME280;37844;57.126;24.288;2023-05-13T11:43:56;102722.59;;;23.07;39.63
51781;BME280;37844;57.126;24.288;2023-05-13T11:46:55;102715.72;;;22.82;39.34
51781;BME280;37844;57.126;24.288;2023-05-13T11:49:40;102704.41;;;22.72;39.20
51781;BME280;37844;57.126;24.288;2023-05-13T11:52:24;102714.03;;;22.70;39.67
51781;BME280;37844;57.126;24.288;2023-05-13T11:55:08;102708.56;;;23.07;39.35
51781;BME280;37844;57.126;24.288;2023-05-13T11:57:52;102715.66;;;22.90;39.94
51781;BME280;37844;57.126;24.288;2023-05-13T12:00:36;102710.53;;;22.73;40.50
51781;BME280;37844;57.126;24.288;2023-05-13T12:03:20;102711.25;;;23.01;40.41
51781;BME280;37844;57.126;24.288;2023-05-13T12:06:04;102710.50;;;22.79;40.38
51781;BME280;37844;57.126;24.288;2023-05-13T12:08:48;102711.38;;;22.81;40.68
51781;BME280;37844;57.126;24.288;2023-05-13T12:11:32;102709.72;;;22.66;41.01
51781;BME280;37844;57.126;24.288;2023-05-13T12:14:16;102704.41;;;22.71;41.86
51781;BME280;37844;57.126;24.288;2023-05-13T12:17:01;102704.56;;;22.46;41.99
51781;BME280;37844;57.126;24.288;2023-05-13T12:23:02;102692.19;;;22.59;42.54
51781;BME280;37844;57.126;24.288;2023-05-13T12:25:47;102698.34;;;22.58;42.15
51781;BME280;37844;57.126;24.288;2023-05-13T12:28:33;102695.81;;;22.44;42.24
51781;BME280;37844;57.126;24.288;2023-05-13T12:31:18;102694.91;;;22.47;41.93
51781;BME280;37844;57.126;24.288;2023-05-13T12:34:02;102695.91;;;22.15;42.06
51781;BME280;37844;57.126;24.288;2023-05-13T12:36:46;102694.06;;;22.43;42.04
51781;BME280;37844;57.126;24.288;2023-05-13T12:39:30;102691.41;;;22.44;41.81
51781;BME280;37844;57.126;24.288;2023-05-13T12:42:14;102695.88;;;22.30;42.51
51781;BME280;37844;57.126;24.288;2023-05-13T12:44:59;102695.03;;;22.23;41.70
51781;BME280;37844;57.126;24.288;2023-05-13T12:47:48;102696.72;;;22.38;41.36
51781;BME280;37844;57.126;24.288;2023-05-13T12:50:32;102695.03;;;22.23;41.30
51781;BME280;37844;57.126;24.288;2023-05-13T12:53:16;102697.66;;;22.16;41.05
51781;BME280;37844;57.126;24.288;2023-05-13T12:56:00;102696.81;;;22.06;40.82
51781;BME280;37844;57.126;24.288;2023-05-13T12:58:44;102694.25;;;21.94;40.59
51781;BME280;37844;57.126;24.288;2023-05-13T13:01:28;102695.09;;;22.00;40.86
51781;BME280;37844;57.126;24.288;2023-05-13T13:04:18;102689.03;;;21.75;40.74
51781;BME280;37844;57.126;24.288;2023-05-13T13:07:02;102684.69;;;21.60;40.54
51781;BME280;37844;57.126;24.288;2023-05-13T13:09:47;102682.06;;;21.54;40.19
51781;BME280;37844;57.126;24.288;2023-05-13T13:12:31;102683.84;;;21.60;41.44
51781;BME280;37844;57.126;24.288;2023-05-13T13:15:15;102683.84;;;21.57;41.16
51781;BME280;37844;57.126;24.288;2023-05-13T13:17:59;102685.56;;;21.67;40.88
51781;BME280;37844;57.126;24.288;2023-05-13T13:20:42;102684.69;;;21.60;41.26
51781;BME280;37844;57.126;24.288;2023-05-13T13:23:26;102686.47;;;21.57;41.72
51781;BME280;37844;57.126;24.288;2023-05-13T13:26:11;102670.72;;;21.45;41.46
51781;BME280;37844;57.126;24.288;2023-05-13T13:28:55;102689.97;;;21.42;42.13
51781;BME280;37844;57.126;24.288;2023-05-13T13:31:39;102682.13;;;21.41;41.98
51781;BME280;37844;57.126;24.288;2023-05-13T13:34:23;102686.47;;;21.55;41.36
51781;BME280;37844;57.126;24.288;2023-05-13T13:37:07;102676.00;;;21.42;41.56
51781;BME280;37844;57.126;24.288;2023-05-13T13:39:50;102673.34;;;21.29;41.25
51781;BME280;37844;57.126;24.288;2023-05-13T13:42:34;102677.72;;;21.36;41.58
51781;BME280;37844;57.126;24.288;2023-05-13T13:45:18;102681.22;;;21.49;42.00
51781;BME280;37844;57.126;24.288;2023-05-13T13:48:06;102670.75;;;21.26;41.26
51781;BME280;37844;57.126;24.288;2023-05-13T13:50:50;102666.38;;;21.08;41.03
51781;BME280;37844;57.126;24.288;2023-05-13T13:53:35;102660.25;;;21.17;41.20
51781;BME280;37844;57.126;24.288;2023-05-13T13:56:19;102665.50;;;21.12;40.95
51781;BME280;37844;57.126;24.288;2023-05-13T13:59:04;102662.00;;;21.12;41.33
51781;BME280;37844;57.126;24.288;2023-05-13T14:01:48;102668.09;;;21.11;41.56
51781;BME280;37844;57.126;24.288;2023-05-13T14:04:32;102668.13;;;21.22;41.17
51781;BME280;37844;57.126;24.288;2023-05-13T14:07:16;102657.63;;;21.08;41.40
51781;BME280;37844;57.126;24.288;2023-05-13T14:10:00;102626.16;;;21.03;41.49
51781;BME280;37844;57.126;24.288;2023-05-13T14:12:44;102662.88;;;21.08;41.70
51781;BME280;37844;57.126;24.288;2023-05-13T14:15:28;102659.38;;;21.15;41.63
51781;BME280;37844;57.126;24.288;2023-05-13T14:18:13;102656.75;;;20.96;41.57
51781;BME280;37844;57.126;24.288;2023-05-13T14:20:57;102647.13;;;20.88;41.37
51781;BME280;37844;57.126;24.288;2023-05-13T14:23:41;102647.16;;;21.00;41.41
51781;BME280;37844;57.126;24.288;2023-05-13T14:26:26;102644.53;;;20.79;40.98
51781;BME280;37844;57.126;24.288;2023-05-13T14:29:10;102641.91;;;20.74;41.25
51781;BME280;37844;57.126;24.288;2023-05-13T14:31:54;102646.22;;;20.66;41.62
51781;BME280;37844;57.126;24.288;2023-05-13T14:34:38;102641.03;;;20.89;42.33